createdAt,value
2018-08-06T00:02:27.111Z,99510.31
2018-08-06T00:04:55.228Z,99506.64
2018-08-06T00:07:23.524Z,99508.50
2018-08-06T00:09:51.592Z,99514.63
2018-08-06T00:12:19.551Z,99509.00
2018-08-06T00:14:47.439Z,99507.11
2018-08-06T00:17:15.446Z,99512.16
2018-08-06T00:19:43.499Z,99515.53
2018-08-06T00:22:14.409Z,99510.02
2018-08-06T00:24:42.226Z,99508.33
2018-08-06T00:27:10.284Z,99511.90
2018-08-06T00:29:38.269Z,99511.23
2018-08-06T00:32:06.251Z,99506.81
2018-08-06T00:34:34.186Z,99505.26
2018-08-06T00:37:02.244Z,99509.80
2018-08-06T00:39:30.238Z,99512.16
2018-08-06T00:41:58.169Z,99509.12
2018-08-06T00:44:26.580Z,99508.59
2018-08-06T00:46:54.538Z,99508.92
2018-08-06T00:49:22.451Z,99513.14
2018-08-06T00:51:50.911Z,99510.44
2018-08-06T00:54:18.799Z,99506.06
2018-08-06T00:56:46.872Z,99516.00
2018-08-06T00:59:14.936Z,99521.88
2018-08-06T01:01:42.959Z,99511.06
2018-08-06T01:04:10.861Z,99513.09
2018-08-06T01:06:39.024Z,99510.84
2018-08-06T01:09:09.249Z,99511.02
2018-08-06T01:11:37.701Z,99508.66
2018-08-06T01:14:05.619Z,99510.50
2018-08-06T01:16:33.707Z,99512.68
2018-08-06T01:19:01.754Z,99514.66
2018-08-06T01:21:30.069Z,99509.82
2018-08-06T01:23:58.157Z,99519.59
2018-08-06T01:26:26.119Z,99514.88
2018-08-06T01:28:54.408Z,99509.49
2018-08-06T01:31:22.417Z,99511.18
2018-08-06T01:33:50.239Z,99510.00
2018-08-06T01:36:18.508Z,99511.67
2018-08-06T01:38:46.411Z,99514.88
2018-08-06T01:41:14.363Z,99510.12
2018-08-06T01:43:42.658Z,99516.68
2018-08-06T01:46:10.643Z,99511.63
2018-08-06T01:48:38.551Z,99517.12
2018-08-06T01:51:06.682Z,99517.50
2018-08-06T01:53:34.556Z,99513.59
2018-08-06T01:56:02.585Z,99517.62
2018-08-06T01:58:31.135Z,99512.14
2018-08-06T02:00:59.104Z,99508.94
2018-08-06T02:03:27.124Z,99513.42
2018-08-06T02:05:55.526Z,99515.09
2018-08-06T02:08:23.581Z,99521.81
2018-08-06T02:10:51.554Z,99518.89
2018-08-06T02:13:19.716Z,99519.38
2018-08-06T02:15:47.787Z,99520.83
2018-08-06T02:18:15.775Z,99520.97
2018-08-06T02:20:44.012Z,99522.58
2018-08-06T02:23:11.876Z,99524.59
2018-08-06T02:25:39.784Z,99524.86
2018-08-06T02:28:07.640Z,99531.72
2018-08-06T02:30:35.458Z,99524.06
2018-08-06T02:33:03.393Z,99526.41
2018-08-06T02:35:31.564Z,99526.35
2018-08-06T02:37:59.443Z,99530.48
2018-08-06T02:40:27.478Z,99527.64
2018-08-06T02:42:55.382Z,99521.29
2018-08-06T02:45:23.275Z,99526.02
2018-08-06T02:47:51.139Z,99522.30
2018-08-06T02:50:19.635Z,99525.17
2018-08-06T02:52:47.545Z,99525.17
2018-08-06T02:55:16.196Z,99521.45
2018-08-06T02:57:44.227Z,99523.42
2018-08-06T03:00:14.378Z,99526.23
2018-08-06T03:02:43.722Z,99529.36
2018-08-06T03:05:13.687Z,99533.89
2018-08-06T03:07:42.943Z,99538.42
2018-08-06T03:10:11.206Z,99538.42
2018-08-06T03:12:39.260Z,99535.30
2018-08-06T03:15:08.635Z,99539.48
2018-08-06T03:17:36.833Z,99539.05
2018-08-06T03:20:06.219Z,99535.95
2018-08-06T03:22:34.215Z,99540.64
2018-08-06T03:25:02.341Z,99535.41
2018-08-06T03:27:30.570Z,99539.75
2018-08-06T03:29:58.529Z,99539.41
2018-08-06T03:32:26.353Z,99545.01
2018-08-06T03:34:55.018Z,99544.23
2018-08-06T03:37:23.172Z,99545.80
2018-08-06T03:39:51.106Z,99549.52
2018-08-06T03:42:19.551Z,99547.59
2018-08-06T03:44:47.578Z,99549.97
2018-08-06T03:47:15.410Z,99559.87
2018-08-06T03:49:43.440Z,99565.84
2018-08-06T03:52:11.343Z,99556.88
2018-08-06T03:54:39.322Z,99558.27
2018-08-06T03:57:07.418Z,99558.33
2018-08-06T03:59:35.545Z,99568.70
2018-08-06T04:02:03.966Z,99561.44
2018-08-06T04:04:31.986Z,99565.73
2018-08-06T04:07:00.047Z,99567.34
2018-08-06T04:09:28.373Z,99566.78
2018-08-06T04:11:56.430Z,99560.95
2018-08-06T04:14:25.630Z,99566.24
2018-08-06T04:16:54.003Z,99576.13
2018-08-06T04:19:21.972Z,99568.59
2018-08-06T04:21:49.752Z,99569.36
2018-08-06T04:24:17.861Z,99567.20
2018-08-06T04:26:45.881Z,99569.98
2018-08-06T04:29:13.824Z,99570.01
2018-08-06T04:31:41.889Z,99568.85
2018-08-06T04:34:09.771Z,99568.36
2018-08-06T04:36:37.739Z,99567.42
2018-08-06T04:39:06.901Z,99571.97
2018-08-06T04:41:35.027Z,99572.33
2018-08-06T04:44:02.959Z,99578.22
2018-08-06T04:46:31.280Z,99585.64
2018-08-06T04:48:59.192Z,99581.25
2018-08-06T04:51:27.220Z,99579.91
2018-08-06T04:53:55.888Z,99587.49
2018-08-06T04:56:24.103Z,99594.58
2018-08-06T04:58:52.227Z,99589.37
2018-08-06T05:01:20.287Z,99588.66
2018-08-06T05:03:48.264Z,99588.14
2018-08-06T05:06:16.202Z,99589.02
2018-08-06T05:08:44.488Z,99594.36
2018-08-06T05:11:12.538Z,99596.66
2018-08-06T05:13:40.567Z,99599.98
2018-08-06T05:16:09.115Z,99597.17
2018-08-06T05:18:37.111Z,99608.73
2018-08-06T05:21:05.288Z,99615.45
2018-08-06T05:23:40.470Z,99605.63
2018-08-06T05:26:08.764Z,99612.27
2018-08-06T05:28:37.214Z,99617.36
2018-08-06T05:31:05.957Z,99613.06
2018-08-06T05:33:33.814Z,99607.85
2018-08-06T05:36:01.721Z,99611.66
2018-08-06T05:38:29.918Z,99612.48
2018-08-06T05:40:57.911Z,99615.94
2018-08-06T05:43:25.973Z,99615.48
2018-08-06T05:45:53.911Z,99607.14
2018-08-06T05:48:21.764Z,99610.73
2018-08-06T05:50:49.589Z,99609.63
2018-08-06T05:53:17.443Z,99603.43
2018-08-06T05:55:45.340Z,99606.95
2018-08-06T05:58:13.183Z,99606.13
2018-08-06T06:00:40.964Z,99606.59
2018-08-06T06:03:08.814Z,99602.61
2018-08-06T06:05:36.591Z,99605.81
2018-08-06T06:08:05.088Z,99604.84
2018-08-06T06:10:33.075Z,99611.90
2018-08-06T06:13:01.124Z,99603.39
2018-08-06T06:15:29.299Z,99608.94
2018-08-06T06:17:57.098Z,99615.48
2018-08-06T06:20:24.981Z,99618.88
2018-08-06T06:22:53.183Z,99616.81
2018-08-06T06:25:21.147Z,99622.42
2018-08-06T06:27:49.094Z,99616.25
2018-08-06T06:30:17.726Z,99616.70
2018-08-06T06:32:45.683Z,99613.61
2018-08-06T06:35:14.092Z,99617.98
2018-08-06T06:37:42.749Z,99613.34
2018-08-06T06:40:10.801Z,99611.59
2018-08-06T06:42:38.718Z,99617.41
2018-08-06T06:45:08.258Z,99608.35
2018-08-06T06:47:36.174Z,99613.20
2018-08-06T06:50:04.432Z,99599.13
2018-08-06T06:52:32.809Z,99599.51
2018-08-06T06:55:00.522Z,99604.23
2018-08-06T06:57:28.564Z,99602.20
2018-08-06T06:59:56.597Z,99603.63
2018-08-06T07:02:24.449Z,99607.75
2018-08-06T07:04:52.623Z,99605.80
2018-08-06T07:07:20.515Z,99599.69
2018-08-06T07:09:48.385Z,99595.46
2018-08-06T07:12:16.302Z,99602.08
2018-08-06T07:14:44.710Z,99597.22
2018-08-06T07:17:12.600Z,99600.09
2018-08-06T07:19:40.466Z,99598.48
2018-08-06T07:22:08.996Z,99597.98
2018-08-06T07:24:36.840Z,99596.96
2018-08-06T07:27:04.809Z,99593.97
2018-08-06T07:29:33.227Z,99605.05
2018-08-06T07:32:01.110Z,99601.29
2018-08-06T07:34:28.994Z,99603.22
2018-08-06T07:36:57.431Z,99599.61
2018-08-06T07:39:25.216Z,99605.93
2018-08-06T07:41:52.949Z,99603.41
2018-08-06T07:44:20.866Z,99612.04
2018-08-06T07:46:48.733Z,99604.01
2018-08-06T07:49:16.629Z,99609.24
2018-08-06T07:51:44.552Z,99603.63
2018-08-06T07:54:12.454Z,99602.53
2018-08-06T07:56:40.432Z,99603.36
2018-08-06T07:59:08.302Z,99604.42
2018-08-06T08:01:36.118Z,99608.48
2018-08-06T08:04:04.119Z,99607.06
2018-08-06T08:06:32.133Z,99608.14
2018-08-06T08:08:59.982Z,99604.84
2018-08-06T08:11:27.844Z,99604.95
2018-08-06T08:13:55.942Z,99603.95
2018-08-06T08:16:23.772Z,99597.41
2018-08-06T08:18:51.739Z,99597.47
2018-08-06T08:21:20.200Z,99593.06
2018-08-06T08:23:48.079Z,99600.56
2018-08-06T08:26:16.173Z,99593.30
2018-08-06T08:28:44.147Z,99587.08
2018-08-06T08:31:12.952Z,99591.06
2018-08-06T08:33:40.920Z,99583.83
2018-08-06T08:36:08.772Z,99590.77
2018-08-06T08:38:36.671Z,99585.92
2018-08-06T08:41:04.744Z,99581.06
2018-08-06T08:43:32.758Z,99576.30
2018-08-06T08:46:00.733Z,99571.45
2018-08-06T08:48:28.675Z,99569.03
2018-08-06T08:50:56.595Z,99567.37
2018-08-06T08:53:24.622Z,99566.08
2018-08-06T08:55:52.556Z,99568.63
2018-08-06T08:58:20.400Z,99560.63
2018-08-06T09:00:48.200Z,99561.50
2018-08-06T09:03:16.146Z,99569.12
2018-08-06T09:05:44.524Z,99557.72
2018-08-06T09:08:12.439Z,99557.01
2018-08-06T09:10:40.344Z,99556.35
2018-08-06T09:13:08.247Z,99556.04
2018-08-06T09:15:36.139Z,99556.92
2018-08-06T09:18:04.122Z,99554.81
2018-08-06T09:20:32.098Z,99556.34
2018-08-06T09:22:59.931Z,99548.73
2018-08-06T09:25:27.819Z,99545.34
2018-08-06T09:27:55.694Z,99544.92
2018-08-06T09:30:24.444Z,99533.98
2018-08-06T09:32:53.603Z,99535.06
2018-08-06T09:35:21.922Z,99536.37
2018-08-06T09:37:50.564Z,99529.98
2018-08-06T09:40:19.594Z,99528.89
2018-08-06T09:42:48.326Z,99530.06
2018-08-06T09:45:17.441Z,99530.82
2018-08-06T09:47:46.694Z,99531.50
2018-08-06T09:50:15.425Z,99524.69
2018-08-06T09:52:44.296Z,99523.15
2018-08-06T09:55:17.186Z,99514.95
2018-08-06T09:57:45.246Z,99511.05
2018-08-06T10:00:23.526Z,99517.43
2018-08-06T10:02:52.095Z,99515.29
2018-08-06T10:05:21.063Z,99509.62
2018-08-06T10:07:49.285Z,99506.29
2018-08-06T10:10:17.157Z,99510.78
2018-08-06T10:12:45.590Z,99500.61
2018-08-06T10:15:14.324Z,99494.73
2018-08-06T10:17:43.217Z,99484.25
2018-08-06T10:20:13.238Z,99489.22
2018-08-06T10:22:41.594Z,99483.83
2018-08-06T10:25:11.118Z,99474.15
2018-08-06T10:27:39.917Z,99480.89
2018-08-06T10:30:23.526Z,99479.23
2018-08-06T10:32:51.336Z,99474.28
2018-08-06T10:35:19.884Z,99466.53
2018-08-06T10:37:47.994Z,99471.41
2018-08-06T10:40:20.957Z,99469.19
2018-08-06T10:42:49.035Z,99469.02
2018-08-06T10:45:18.996Z,99465.41
2018-08-06T10:47:47.296Z,99467.06
2018-08-06T10:50:15.256Z,99462.80
2018-08-06T10:52:43.175Z,99461.26
2018-08-06T10:55:11.516Z,99460.37
2018-08-06T10:57:41.159Z,99462.59
2018-08-06T11:00:22.174Z,99458.38
2018-08-06T11:02:50.824Z,99456.48
2018-08-06T11:05:19.389Z,99453.34
2018-08-06T11:07:47.185Z,99452.74
2018-08-06T11:10:16.583Z,99450.94
2018-08-06T11:12:44.419Z,99445.69
2018-08-06T11:15:22.201Z,99447.36
2018-08-06T11:17:50.296Z,99444.00
2018-08-06T11:20:19.006Z,99440.80
2018-08-06T11:22:47.374Z,99444.44
2018-08-06T11:25:16.792Z,99443.16
2018-08-06T11:27:44.792Z,99438.71
2018-08-06T11:30:15.784Z,99435.86
2018-08-06T11:32:44.730Z,99437.31
2018-08-06T11:35:14.021Z,99433.56
2018-08-06T11:37:42.347Z,99442.17
2018-08-06T11:40:11.287Z,99433.30
2018-08-06T11:42:39.956Z,99428.92
2018-08-06T11:45:09.497Z,99426.00
2018-08-06T11:47:37.441Z,99421.34
2018-08-06T11:50:05.839Z,99419.94
2018-08-06T11:52:34.103Z,99418.70
2018-08-06T11:55:02.140Z,99416.91
2018-08-06T11:57:30.072Z,99414.33
2018-08-06T11:59:58.340Z,99413.16
2018-08-06T12:02:26.702Z,99406.25
2018-08-06T12:04:54.623Z,99410.20
2018-08-06T12:07:23.140Z,99406.02
2018-08-06T12:09:51.106Z,99398.55
2018-08-06T12:12:19.536Z,99399.41
2018-08-06T12:14:48.791Z,99395.25
2018-08-06T12:17:16.754Z,99392.66
2018-08-06T12:19:44.603Z,99393.04
2018-08-06T12:22:12.728Z,99384.59
2018-08-06T12:24:40.606Z,99378.41
2018-08-06T12:27:08.589Z,99381.11
2018-08-06T12:29:36.424Z,99375.41
2018-08-06T12:32:04.392Z,99374.34
2018-08-06T12:34:32.274Z,99371.55
2018-08-06T12:37:00.596Z,99371.81
2018-08-06T12:39:28.542Z,99369.03
2018-08-06T12:41:56.444Z,99363.95
2018-08-06T12:44:24.388Z,99364.81
2018-08-06T12:46:52.335Z,99362.95
2018-08-06T12:49:20.339Z,99361.30
2018-08-06T12:51:48.850Z,99351.56
2018-08-06T12:54:16.726Z,99358.06
2018-08-06T12:56:44.623Z,99351.27
2018-08-06T12:59:12.543Z,99355.19
2018-08-06T13:01:40.402Z,99350.97
2018-08-06T13:04:08.152Z,99349.95
2018-08-06T13:06:36.604Z,99349.89
2018-08-06T13:09:07.467Z,99347.53
2018-08-06T13:11:35.268Z,99337.70
2018-08-06T13:14:03.666Z,99343.86
2018-08-06T13:16:31.547Z,99341.92
2018-08-06T13:18:59.468Z,99349.81
2018-08-06T13:21:27.868Z,99342.44
2018-08-06T13:23:55.685Z,99341.62
2018-08-06T13:26:23.566Z,99350.97
2018-08-06T13:28:51.855Z,99342.64
2018-08-06T13:31:19.771Z,99347.53
2018-08-06T13:33:47.460Z,99337.16
2018-08-06T13:36:15.383Z,99332.02
2018-08-06T13:38:43.388Z,99337.39
2018-08-06T13:41:11.233Z,99336.83
2018-08-06T13:43:39.084Z,99334.72
2018-08-06T13:46:07.284Z,99328.69
2018-08-06T13:48:35.134Z,99328.40
2018-08-06T13:51:03.490Z,99328.41
2018-08-06T13:53:31.471Z,99327.92
2018-08-06T13:55:59.364Z,99317.25
2018-08-06T13:58:27.383Z,99330.80
2018-08-06T14:00:55.482Z,99320.58
2018-08-06T14:03:23.394Z,99325.31
2018-08-06T14:05:51.901Z,99319.62
2018-08-06T14:08:19.815Z,99322.69
2018-08-06T14:10:47.841Z,99324.52
2018-08-06T14:13:16.278Z,99315.03
2018-08-06T14:15:44.356Z,99313.72
2018-08-06T14:18:13.493Z,99316.51
2018-08-06T14:20:41.670Z,99323.74
2018-08-06T14:23:09.738Z,99321.89
2018-08-06T14:25:37.778Z,99318.50
2018-08-06T14:28:05.764Z,99318.06
2018-08-06T14:30:33.733Z,99318.72
2018-08-06T14:33:01.755Z,99308.42
2018-08-06T14:35:30.783Z,99309.59
2018-08-06T14:37:58.810Z,99314.73
2018-08-06T14:40:26.724Z,99314.08
2018-08-06T14:42:55.326Z,99313.13
2018-08-06T14:45:23.214Z,99304.49
2018-08-06T14:47:51.130Z,99302.58
2018-08-06T14:50:19.386Z,99307.41
2018-08-06T14:52:47.348Z,99308.56
2018-08-06T14:55:15.322Z,99312.17
2018-08-06T14:57:43.239Z,99308.72
2018-08-06T15:00:17.934Z,99317.77
2018-08-06T15:02:46.639Z,99312.77
2018-08-06T15:05:14.434Z,99308.97
2018-08-06T15:07:42.704Z,99307.34
2018-08-06T15:10:11.680Z,99306.63
2018-08-06T15:12:39.844Z,99304.70
2018-08-06T15:15:13.485Z,99304.41
2018-08-06T15:17:55.206Z,99296.91
2018-08-06T15:20:23.998Z,99298.09
2018-08-06T15:22:56.193Z,99292.61
2018-08-06T15:25:24.873Z,99294.31
2018-08-06T15:27:57.421Z,99292.95
2018-08-06T15:30:25.932Z,99289.11
2018-08-06T15:32:55.652Z,99285.75
2018-08-06T15:35:32.737Z,99285.63
2018-08-06T15:38:02.179Z,99290.05
2018-08-06T15:40:30.663Z,99288.40
2018-08-06T15:43:00.896Z,99282.25
2018-08-06T15:45:30.089Z,99285.83
2018-08-06T15:47:58.592Z,99280.48
2018-08-06T15:50:27.306Z,99288.93
2018-08-06T15:52:56.176Z,99284.39
2018-08-06T15:55:30.604Z,99278.33
2018-08-06T15:57:58.773Z,99283.39
2018-08-06T16:00:27.041Z,99281.30
2018-08-06T16:02:55.443Z,99287.36
2018-08-06T16:05:24.676Z,99287.83
2018-08-06T16:07:52.978Z,99284.16
2018-08-06T16:10:21.777Z,99288.36
2018-08-06T16:12:51.005Z,99287.59
2018-08-06T16:15:24.681Z,99287.83
2018-08-06T16:17:52.957Z,99288.12
2018-08-06T16:20:21.228Z,99290.45
2018-08-06T16:22:50.454Z,99292.76
2018-08-06T16:25:19.739Z,99295.09
2018-08-06T16:27:48.030Z,99298.89
2018-08-06T16:30:22.966Z,99293.00
2018-08-06T16:32:51.820Z,99293.70
2018-08-06T16:35:21.446Z,99302.18
2018-08-06T16:37:51.382Z,99295.63
2018-08-06T16:40:19.639Z,99293.05
2018-08-06T16:42:48.517Z,99296.72
2018-08-06T16:45:16.778Z,99302.11
2018-08-06T16:47:48.677Z,99300.52
2018-08-06T16:50:18.352Z,99306.66
2018-08-06T16:52:46.812Z,99306.47
2018-08-06T16:55:14.809Z,99302.71
2018-08-06T16:57:44.417Z,99309.09
2018-08-06T17:00:15.579Z,99313.94
2018-08-06T17:02:44.072Z,99310.20
2018-08-06T17:05:17.340Z,99308.83
2018-08-06T17:07:46.731Z,99306.55
2018-08-06T17:10:18.490Z,99315.84
2018-08-06T17:12:49.270Z,99326.53
2018-08-06T17:15:18.584Z,99322.94
2018-08-06T17:17:49.045Z,99318.29
2018-08-06T17:20:19.122Z,99320.14
2018-08-06T17:22:48.849Z,99315.95
2018-08-06T17:25:17.355Z,99316.41
2018-08-06T17:27:46.603Z,99327.86
2018-08-06T17:30:19.568Z,99322.02
2018-08-06T17:32:48.516Z,99322.05
2018-08-06T17:35:20.152Z,99330.77
2018-08-06T17:37:49.588Z,99330.00
2018-08-06T17:40:18.629Z,99327.25
2018-08-06T17:42:53.862Z,99333.37
2018-08-06T17:45:25.768Z,99333.79
2018-08-06T17:47:54.031Z,99328.84
2018-08-06T17:50:23.401Z,99341.53
2018-08-06T17:52:56.265Z,99340.98
2018-08-06T17:55:24.641Z,99346.98
2018-08-06T17:57:53.881Z,99356.00
2018-08-06T18:00:22.308Z,99355.73
2018-08-06T18:02:50.828Z,99357.23
2018-08-06T18:05:22.808Z,99355.88
2018-08-06T18:07:51.258Z,99356.47
2018-08-06T18:10:24.912Z,99359.70
2018-08-06T18:12:53.343Z,99361.19
2018-08-06T18:15:22.259Z,99360.56
2018-08-06T18:17:51.045Z,99365.72
2018-08-06T18:20:19.533Z,99370.91
2018-08-06T18:22:48.793Z,99379.56
2018-08-06T18:25:18.326Z,99373.95
2018-08-06T18:27:47.836Z,99377.14
2018-08-06T18:30:18.882Z,99376.45
2018-08-06T18:32:47.457Z,99387.73
2018-08-06T18:35:17.562Z,99389.45
2018-08-06T18:37:45.715Z,99391.27
2018-08-06T18:40:14.778Z,99394.72
2018-08-06T18:42:43.228Z,99396.36
2018-08-06T18:45:13.849Z,99388.16
2018-08-06T18:47:42.648Z,99396.77
2018-08-06T18:50:12.008Z,99401.86
2018-08-06T18:52:40.308Z,99406.59
2018-08-06T18:55:10.338Z,99407.70
2018-08-06T18:57:38.436Z,99410.30
2018-08-06T19:00:08.872Z,99413.38
2018-08-06T19:02:37.339Z,99410.95
2018-08-06T19:05:05.957Z,99411.86
2018-08-06T19:07:33.787Z,99412.50
2018-08-06T19:10:02.419Z,99411.81
2018-08-06T19:12:35.955Z,99413.80
2018-08-06T19:15:04.545Z,99413.58
2018-08-06T19:17:32.602Z,99412.20
2018-08-06T19:20:00.563Z,99413.47
2018-08-06T19:22:28.901Z,99417.98
2018-08-06T19:25:02.139Z,99412.47
2018-08-06T19:27:30.167Z,99410.78
2018-08-06T19:29:58.243Z,99414.40
2018-08-06T19:32:26.188Z,99415.23
2018-08-06T19:34:58.555Z,99423.81
2018-08-06T19:37:32.055Z,99418.94
2018-08-06T19:40:00.091Z,99423.58
2018-08-06T19:42:32.619Z,99415.80
2018-08-06T19:45:00.974Z,99414.80
2018-08-06T19:47:28.936Z,99417.66
2018-08-06T19:51:01.239Z,99418.67
2018-08-06T19:53:29.204Z,99419.59
2018-08-06T19:56:02.808Z,99421.70
2018-08-06T19:58:30.668Z,99422.77
2018-08-06T20:00:58.720Z,99421.62
2018-08-06T20:03:26.756Z,99421.75
2018-08-06T20:05:54.708Z,99422.61
2018-08-06T20:08:22.674Z,99419.39
2018-08-06T20:10:50.642Z,99427.97
2018-08-06T20:13:19.801Z,99425.85
2018-08-06T20:15:47.878Z,99427.72
2018-08-06T20:18:16.338Z,99433.42
2018-08-06T20:20:44.233Z,99442.48
2018-08-06T20:23:12.234Z,99432.34
2018-08-06T20:25:40.347Z,99441.05
2018-08-06T20:28:08.277Z,99433.91
2018-08-06T20:30:36.504Z,99445.53
2018-08-06T20:33:05.207Z,99439.16
2018-08-06T20:35:33.205Z,99435.52
2018-08-06T20:38:01.313Z,99435.20
2018-08-06T20:40:29.517Z,99433.94
2018-08-06T20:42:57.847Z,99438.38
2018-08-06T20:45:26.622Z,99436.19
2018-08-06T20:47:54.955Z,99441.09
2018-08-06T20:50:23.930Z,99440.11
2018-08-06T20:52:52.962Z,99438.56
2018-08-06T20:55:22.215Z,99439.39
2018-08-06T20:57:50.601Z,99442.11
2018-08-06T21:00:22.703Z,99444.66
2018-08-06T21:02:51.259Z,99449.38
2018-08-06T21:05:19.524Z,99448.97
2018-08-06T21:07:47.853Z,99453.55
2018-08-06T21:10:16.681Z,99453.06
2018-08-06T21:12:45.000Z,99452.23
2018-08-06T21:15:14.015Z,99456.98
2018-08-06T21:17:42.658Z,99461.41
2018-08-06T21:20:12.091Z,99466.39
2018-08-06T21:22:41.075Z,99458.16
2018-08-06T21:25:10.615Z,99457.50
2018-08-06T21:27:39.216Z,99456.16
2018-08-06T21:30:09.680Z,99454.50
2018-08-06T21:32:38.249Z,99461.47
2018-08-06T21:35:06.859Z,99462.81
2018-08-06T21:37:35.122Z,99465.91
2018-08-06T21:40:03.640Z,99463.73
2018-08-06T21:42:31.799Z,99466.95
2018-08-06T21:44:59.693Z,99465.73
2018-08-06T21:47:27.687Z,99467.43
2018-08-06T21:49:55.830Z,99465.74
2018-08-06T21:52:23.761Z,99466.58
2018-08-06T21:54:52.322Z,99469.45
2018-08-06T21:57:20.350Z,99466.78
2018-08-06T21:59:48.376Z,99467.47
2018-08-06T22:02:16.867Z,99470.64
2018-08-06T22:04:44.878Z,99469.30
2018-08-06T22:07:12.744Z,99478.41
2018-08-06T22:09:41.135Z,99474.70
2018-08-06T22:12:09.183Z,99477.06
2018-08-06T22:14:37.366Z,99477.05
2018-08-06T22:17:05.764Z,99470.80
2018-08-06T22:19:33.751Z,99468.73
2018-08-06T22:22:01.831Z,99474.14
2018-08-06T22:24:29.900Z,99473.12
2018-08-06T22:26:57.878Z,99464.38
2018-08-06T22:29:25.871Z,99467.41
2018-08-06T22:31:53.869Z,99463.70
2018-08-06T22:34:21.916Z,99461.70
2018-08-06T22:36:49.941Z,99460.52
2018-08-06T22:39:17.930Z,99455.62
2018-08-06T22:41:46.017Z,99456.10
2018-08-06T22:44:14.070Z,99457.48
2018-08-06T22:46:42.159Z,99455.30
2018-08-06T22:49:10.213Z,99453.63
2018-08-06T22:51:38.158Z,99455.02
2018-08-06T22:54:06.008Z,99452.16
2018-08-06T22:56:34.063Z,99459.75
2018-08-06T22:59:02.212Z,99460.61
2018-08-06T23:01:30.227Z,99458.25
2018-08-06T23:03:58.075Z,99451.14
2018-08-06T23:06:26.128Z,99458.89
2018-08-06T23:08:54.369Z,99454.02
2018-08-06T23:11:22.419Z,99450.80
2018-08-06T23:13:50.438Z,99450.66
2018-08-06T23:16:18.804Z,99450.64
2018-08-06T23:18:46.803Z,99447.27
2018-08-06T23:21:14.824Z,99449.10
2018-08-06T23:23:42.813Z,99447.09
2018-08-06T23:26:10.734Z,99453.98
2018-08-06T23:28:38.769Z,99451.27
2018-08-06T23:31:07.079Z,99451.27
2018-08-06T23:33:34.937Z,99450.77
2018-08-06T23:36:02.769Z,99452.22
2018-08-06T23:38:30.953Z,99453.54
2018-08-06T23:40:59.134Z,99455.56
2018-08-06T23:43:27.174Z,99453.55
2018-08-06T23:45:55.763Z,99456.20
2018-08-06T23:48:23.915Z,99458.39
2018-08-06T23:50:51.943Z,99461.59
2018-08-06T23:53:20.020Z,99461.25
2018-08-06T23:55:47.987Z,99453.64
2018-08-06T23:58:16.167Z,99454.48
